Time,TemperatureF,DewpointF,PressureIn,WindDirection,WindDirectionDegrees,WindSpeedMPH,WindSpeedGustMPH,Humidity,HourlyPrecipIn,Conditions,Clouds,dailyrainin,SoftwareType,DateUTC
2013-01-01 00:00:00,55.7,53.7,30.24,ESE,116,0.0,0.0,93,0.00,,FEW250,0.00,VWS V14.01,2013-01-01 05:00:00,
2013-01-01 00:01:00,55.7,53.7,30.24,ESE,116,0.0,0.0,93,0.00,,BKN250,0.00,VWS V14.01,2013-01-01 05:01:00,
2013-01-01 00:02:00,55.7,53.7,30.24,ESE,116,0.0,0.0,93,0.00,,BKN250,0.00,VWS V14.01,2013-01-01 05:02:00,
2013-01-01 00:03:00,55.8,53.8,30.24,ESE,116,0.0,0.0,93,0.00,,BKN250,0.00,VWS V14.01,2013-01-01 05:03:00,
2013-01-01 00:08:00,55.9,53.9,30.24,ESE,116,0.0,0.0,93,0.00,,BKN250,0.00,VWS V14.01,2013-01-01 05:08:00,
2013-01-01 00:13:00,55.9,53.9,30.24,ESE,116,0.0,0.0,93,0.00,,BKN250,0.00,VWS V14.01,2013-01-01 05:13:00,
2013-01-01 00:18:00,56.0,54.3,30.24,ESE,116,0.0,0.0,94,0.00,,BKN250,0.00,VWS V14.01,2013-01-01 05:18:00,
2013-01-01 00:23:00,56.2,54.5,30.23,ESE,116,0.0,0.0,94,0.00,,BKN250,0.00,VWS V14.01,2013-01-01 05:23:00,
2013-01-01 00:29:00,56.3,54.6,30.23,ESE,116,0.0,0.0,94,0.00,,BKN250,0.00,VWS V14.01,2013-01-01 05:29:00,
2013-01-01 00:34:00,56.4,54.7,30.23,ESE,116,0.0,0.0,94,0.00,,BKN250,0.00,VWS V14.01,2013-01-01 05:34:00,
2013-01-01 00:39:00,56.6,54.9,30.23,ESE,116,0.0,0.0,94,0.00,,BKN250,0.00,VWS V14.01,2013-01-01 05:39:00,
2013-01-01 00:44:00,56.7,54.7,30.23,ESE,116,0.0,0.0,93,0.00,,BKN250,0.00,VWS V14.01,2013-01-01 05:44:00,
2013-01-01 00:49:00,56.8,54.8,30.23,ESE,116,0.0,0.0,93,0.00,,BKN250,0.00,VWS V14.01,2013-01-01 05:49:00,
2013-01-01 00:54:00,56.8,54.8,30.23,ESE,116,0.0,0.0,93,0.00,,BKN250,0.00,VWS V14.01,2013-01-01 05:54:00,
2013-01-01 00:59:00,56.8,54.8,30.23,ESE,116,0.0,0.0,93,0.00,,BKN250,0.00,VWS V14.01,2013-01-01 05:59:00,
2013-01-01 01:04:00,56.9,54.9,30.22,ESE,116,0.0,0.0,93,0.00,,BKN250,0.00,VWS V14.01,2013-01-01 06:04:00,
2013-01-01 01:09:00,57.0,55.0,30.22,ESE,116,0.0,0.0,93,0.00,,BKN250,0.00,VWS V14.01,2013-01-01 06:09:00,
2013-01-01 01:14:00,57.1,55.1,30.22,ESE,116,0.0,0.0,93,0.00,,BKN250,0.00,VWS V14.01,2013-01-01 06:14:00,
2013-01-01 01:19:00,57.1,54.8,30.22,ESE,116,0.0,0.0,92,0.00,,BKN250,0.00,VWS V14.01,2013-01-01 06:19:00,
2013-01-01 01:24:00,57.0,54.7,30.22,ESE,116,0.0,0.0,92,0.00,,BKN250,0.00,VWS V14.01,2013-01-01 06:24:00,
2013-01-01 01:29:00,56.8,54.5,30.22,ESE,116,0.0,0.0,92,0.00,,BKN250,0.00,VWS V14.01,2013-01-01 06:29:00,
2013-01-01 01:34:00,56.7,54.4,30.21,ESE,116,0.0,0.0,92,0.00,,BKN250,0.00,VWS V14.01,2013-01-01 06:34:00,
2013-01-01 01:39:00,56.6,54.3,30.21,ESE,116,0.0,0.0,92,0.00,,BKN250,0.00,VWS V14.01,2013-01-01 06:39:00,
2013-01-01 01:45:00,56.5,54.2,30.21,ESE,116,0.0,0.0,92,0.00,,BKN250,0.00,VWS V14.01,2013-01-01 06:45:00,
2013-01-01 01:50:00,56.4,54.1,30.21,ESE,116,0.0,0.0,92,0.00,,BKN250,0.00,VWS V14.01,2013-01-01 06:50:00,
2013-01-01 01:55:00,56.1,53.8,30.21,ESE,116,0.0,0.0,92,0.00,,BKN250,0.00,VWS V14.01,2013-01-01 06:55:00,
2013-01-01 02:00:00,56.0,54.0,30.20,ESE,116,0.0,0.0,93,0.00,,BKN250,0.00,VWS V14.01,2013-01-01 07:00:00,
2013-01-01 02:05:00,55.9,53.9,30.20,ESE,116,0.0,0.0,93,0.00,,FEW039,0.00,VWS V14.01,2013-01-01 07:05:00,
2013-01-01 02:10:00,55.7,53.7,30.20,ESE,116,0.0,0.0,93,0.00,,FEW039,0.00,VWS V14.01,2013-01-01 07:10:00,
2013-01-01 02:15:00,55.7,54.0,30.20,ESE,116,0.0,0.0,94,0.00,,FEW039,0.00,VWS V14.01,2013-01-01 07:15:00,
2013-01-01 02:20:00,55.7,53.7,30.19,ESE,116,0.0,0.0,93,0.00,,FEW039,0.00,VWS V14.01,2013-01-01 07:20:00,
2013-01-01 02:25:00,55.8,53.8,30.19,ESE,116,0.0,0.0,93,0.00,,FEW039,0.00,VWS V14.01,2013-01-01 07:25:00,
2013-01-01 02:31:00,55.9,53.9,30.19,ESE,116,0.0,0.0,93,0.00,,FEW039,0.00,VWS V14.01,2013-01-01 07:31:00,
2013-01-01 02:36:00,56.0,54.0,30.19,ESE,116,0.0,0.0,93,0.00,,FEW039,0.00,VWS V14.01,2013-01-01 07:36:00,
2013-01-01 02:41:00,56.0,54.0,30.19,ESE,116,0.0,0.0,93,0.00,,FEW039,0.00,VWS V14.01,2013-01-01 07:41:00,
2013-01-01 02:46:00,56.1,54.1,30.19,ESE,116,0.0,0.0,93,0.00,,FEW039,0.00,VWS V14.01,2013-01-01 07:46:00,
2013-01-01 02:51:00,56.0,54.0,30.19,ESE,116,0.0,0.0,93,0.00,,FEW039,0.00,VWS V14.01,2013-01-01 07:51:00,
2013-01-01 02:56:00,55.9,53.9,30.18,ESE,116,0.0,0.0,93,0.00,,FEW039,0.00,VWS V14.01,2013-01-01 07:56:00,
2013-01-01 03:01:00,55.8,53.8,30.19,ESE,116,0.0,0.0,93,0.00,,FEW250,0.00,VWS V14.01,2013-01-01 08:01:00,
2013-01-01 03:06:00,55.6,53.6,30.19,ESE,116,0.0,0.0,93,0.00,,FEW250,0.00,VWS V14.01,2013-01-01 08:06:00,
2013-01-01 03:11:00,55.4,53.7,30.19,ESE,116,0.0,0.0,94,0.00,,FEW250,0.00,VWS V14.01,2013-01-01 08:11:00,
2013-01-01 03:17:00,55.2,53.2,30.19,ESE,116,0.0,0.0,93,0.00,,FEW250,0.00,VWS V14.01,2013-01-01 08:17:00,
2013-01-01 03:22:00,54.9,52.9,30.19,ESE,116,0.0,0.0,93,0.00,,FEW250,0.00,VWS V14.01,2013-01-01 08:22:00,
2013-01-01 03:27:00,54.9,53.2,30.19,ESE,116,0.0,0.0,94,0.00,,FEW250,0.00,VWS V14.01,2013-01-01 08:27:00,
2013-01-01 03:32:00,54.8,53.1,30.19,ESE,116,0.0,0.0,94,0.00,,FEW250,0.00,VWS V14.01,2013-01-01 08:32:00,
2013-01-01 03:37:00,54.5,52.8,30.19,ESE,116,0.0,0.0,94,0.00,,FEW250,0.00,VWS V14.01,2013-01-01 08:37:00,
2013-01-01 03:42:00,54.4,53.0,30.18,ESE,116,0.0,0.0,95,0.00,,FEW250,0.00,VWS V14.01,2013-01-01 08:42:00,
2013-01-01 03:47:00,54.3,52.9,30.18,ESE,116,0.0,0.0,95,0.00,,FEW250,0.00,VWS V14.01,2013-01-01 08:47:00,
2013-01-01 03:52:00,54.2,52.8,30.18,ESE,116,0.0,0.0,95,0.00,,FEW250,0.00,VWS V14.01,2013-01-01 08:52:00,
2013-01-01 03:57:00,54.1,52.7,30.17,ESE,116,0.0,0.0,95,0.00,,FEW250,0.00,VWS V14.01,2013-01-01 08:57:00,
2013-01-01 04:03:00,54.1,53.0,30.17,ESE,116,0.0,0.0,96,0.00,,FEW250,0.00,VWS V14.01,2013-01-01 09:03:00,
2013-01-01 04:08:00,54.3,53.2,30.17,ESE,116,0.0,0.0,96,0.00,,FEW250,0.00,VWS V14.01,2013-01-01 09:08:00,
2013-01-01 04:13:00,54.4,53.3,30.17,ESE,116,0.0,0.0,96,0.00,,FEW250,0.00,VWS V14.01,2013-01-01 09:13:00,
2013-01-01 04:18:00,54.5,53.4,30.17,ESE,116,0.0,0.0,96,0.00,,FEW250,0.00,VWS V14.01,2013-01-01 09:18:00,
2013-01-01 04:23:00,54.6,53.5,30.16,ESE,116,0.0,0.0,96,0.00,,FEW250,0.00,VWS V14.01,2013-01-01 09:23:00,
2013-01-01 04:28:00,54.5,53.1,30.16,ESE,116,0.0,0.0,95,0.00,,FEW250,0.00,VWS V14.01,2013-01-01 09:28:00,
2013-01-01 04:33:00,54.4,53.0,30.17,ESE,116,0.0,0.0,95,0.00,,FEW250,0.00,VWS V14.01,2013-01-01 09:33:00,
2013-01-01 04:38:00,54.2,52.8,30.16,ESE,116,0.0,0.0,95,0.00,,FEW250,0.00,VWS V14.01,2013-01-01 09:38:00,
2013-01-01 04:43:00,54.1,52.7,30.16,ESE,116,0.0,0.0,95,0.00,,FEW250,0.00,VWS V14.01,2013-01-01 09:43:00,
2013-01-01 04:49:00,54.0,52.9,30.16,ESE,116,0.0,0.0,96,0.00,,FEW250,0.00,VWS V14.01,2013-01-01 09:49:00,
2013-01-01 04:54:00,53.9,52.5,30.15,ESE,116,0.0,0.0,95,0.00,,FEW250,0.00,VWS V14.01,2013-01-01 09:54:00,
2013-01-01 04:59:00,53.7,52.3,30.15,ESE,116,0.0,0.0,95,0.00,,FEW250,0.00,VWS V14.01,2013-01-01 09:59:00,
2013-01-01 05:04:00,53.5,52.4,30.15,ESE,116,0.0,0.0,96,0.00,,FEW250,0.00,VWS V14.01,2013-01-01 10:04:00,
2013-01-01 05:09:00,53.3,51.9,30.15,ESE,116,0.0,0.0,95,0.00,,FEW250,0.00,VWS V14.01,2013-01-01 10:09:00,
2013-01-01 05:14:00,53.2,52.1,30.15,ESE,116,0.0,0.0,96,0.00,,FEW250,0.00,VWS V14.01,2013-01-01 10:14:00,
2013-01-01 05:19:00,53.1,52.0,30.15,ESE,116,0.0,0.0,96,0.00,,FEW250,0.00,VWS V14.01,2013-01-01 10:19:00,
2013-01-01 05:24:00,53.1,52.0,30.15,ESE,116,0.0,0.0,96,0.00,,FEW250,0.00,VWS V14.01,2013-01-01 10:24:00,
2013-01-01 05:29:00,52.9,51.8,30.15,ESE,116,0.0,0.0,96,0.00,,FEW250,0.00,VWS V14.01,2013-01-01 10:29:00,
2013-01-01 05:34:00,52.7,51.6,30.15,ESE,116,0.0,0.0,96,0.00,,FEW250,0.00,VWS V14.01,2013-01-01 10:34:00,
2013-01-01 05:40:00,52.4,51.0,30.15,ESE,116,0.0,0.0,95,0.00,,FEW250,0.00,VWS V14.01,2013-01-01 10:40:00,
2013-01-01 05:45:00,52.3,51.2,30.15,ESE,116,0.0,0.0,96,0.00,,FEW250,0.00,VWS V14.01,2013-01-01 10:45:00,
2013-01-01 05:50:00,52.1,51.0,30.15,ESE,116,0.0,0.0,96,0.00,,FEW250,0.00,VWS V14.01,2013-01-01 10:50:00,
2013-01-01 05:55:00,51.9,50.8,30.15,ESE,116,0.0,0.0,96,0.00,,FEW250,0.00,VWS V14.01,2013-01-01 10:55:00,
2013-01-01 06:00:00,51.9,50.8,30.15,ESE,116,0.0,0.0,96,0.00,,FEW250,0.00,VWS V14.01,2013-01-01 11:00:00,
2013-01-01 06:05:00,51.7,50.6,30.15,ESE,116,0.0,0.0,96,0.00,,FEW250,0.00,VWS V14.01,2013-01-01 11:05:00,
2013-01-01 06:10:00,51.6,50.5,30.15,ESE,116,0.0,0.0,96,0.00,,FEW250,0.00,VWS V14.01,2013-01-01 11:10:00,
2013-01-01 06:15:00,51.5,50.4,30.15,ESE,116,0.0,0.0,96,0.00,,FEW250,0.00,VWS V14.01,2013-01-01 11:15:00,
2013-01-01 06:20:00,51.5,50.7,30.15,ESE,116,0.0,0.0,97,0.00,,FEW250,0.00,VWS V14.01,2013-01-01 11:20:00,
2013-01-01 06:25:00,51.4,50.6,30.16,ESE,116,0.0,0.0,97,0.00,,FEW250,0.00,VWS V14.01,2013-01-01 11:25:00,
2013-01-01 06:30:00,51.4,50.6,30.16,ESE,116,0.0,0.0,97,0.00,,FEW250,0.00,VWS V14.01,2013-01-01 11:30:00,
2013-01-01 06:35:00,51.3,50.5,30.16,ESE,116,0.0,0.0,97,0.00,,FEW250,0.00,VWS V14.01,2013-01-01 11:35:00,
2013-01-01 06:40:00,51.2,50.4,30.16,ESE,116,0.0,0.0,97,0.00,,FEW250,0.00,VWS V14.01,2013-01-01 11:40:00,
2013-01-01 06:45:00,51.2,50.4,30.16,ESE,116,0.0,0.0,97,0.00,,FEW250,0.00,VWS V14.01,2013-01-01 11:45:00,
2013-01-01 06:50:00,51.0,50.2,30.16,ESE,116,0.0,0.0,97,0.00,,FEW250,0.00,VWS V14.01,2013-01-01 11:50:00,
2013-01-01 06:55:00,51.1,50.3,30.16,ESE,116,0.0,0.0,97,0.00,,FEW250,0.00,VWS V14.01,2013-01-01 11:55:00,
2013-01-01 07:00:00,51.0,50.2,30.17,ESE,116,0.0,0.0,97,0.00,,,0.00,VWS V14.01,2013-01-01 12:00:00,
2013-01-01 07:05:00,50.9,50.1,30.17,ESE,116,0.0,0.0,97,0.00,,,0.00,VWS V14.01,2013-01-01 12:05:00,
2013-01-01 07:10:00,50.8,50.0,30.16,ESE,116,0.0,0.0,97,0.00,,,0.00,VWS V14.01,2013-01-01 12:10:00,
2013-01-01 07:16:00,50.7,49.9,30.17,ESE,116,0.0,0.0,97,0.00,,,0.00,VWS V14.01,2013-01-01 12:16:00,
2013-01-01 07:21:00,50.5,49.7,30.17,ESE,116,0.0,0.0,97,0.00,,,0.00,VWS V14.01,2013-01-01 12:21:00,
2013-01-01 07:26:00,50.5,49.7,30.17,ESE,116,0.0,0.0,97,0.00,,,0.00,VWS V14.01,2013-01-01 12:26:00,
2013-01-01 07:31:00,50.5,49.7,30.17,ESE,116,0.0,0.0,97,0.00,,,0.00,VWS V14.01,2013-01-01 12:31:00,
2013-01-01 07:36:00,50.5,49.7,30.18,ESE,116,0.0,0.0,97,0.00,,,0.00,VWS V14.01,2013-01-01 12:36:00,
2013-01-01 07:41:00,50.5,49.7,30.17,ESE,116,0.0,0.0,97,0.00,,,0.00,VWS V14.01,2013-01-01 12:41:00,
2013-01-01 07:46:00,50.5,49.7,30.18,ESE,116,0.0,0.0,97,0.00,,,0.00,VWS V14.01,2013-01-01 12:46:00,
2013-01-01 07:51:00,50.5,49.7,30.18,ESE,116,0.0,0.0,97,0.00,,,0.00,VWS V14.01,2013-01-01 12:51:00,
2013-01-01 07:57:00,50.6,50.1,30.18,ESE,116,0.0,0.0,98,0.00,,,0.00,VWS V14.01,2013-01-01 12:57:00,
2013-01-01 08:02:00,50.7,50.2,30.18,ESE,116,0.0,0.0,98,0.00,,,0.00,VWS V14.01,2013-01-01 13:02:00,
2013-01-01 08:07:00,50.9,50.4,30.18,ESE,116,0.0,0.0,98,0.00,,,0.00,VWS V14.01,2013-01-01 13:07:00,
2013-01-01 08:12:00,51.1,50.6,30.18,ESE,116,0.0,0.0,98,0.00,,,0.00,VWS V14.01,2013-01-01 13:12:00,
2013-01-01 08:17:00,51.5,51.0,30.18,ESE,116,0.0,0.0,98,0.00,,,0.00,VWS V14.01,2013-01-01 13:17:00,
2013-01-01 08:22:00,51.8,51.3,30.17,ESE,116,0.0,0.0,98,0.00,,,0.00,VWS V14.01,2013-01-01 13:22:00,
2013-01-01 08:27:00,52.3,51.8,30.17,ESE,116,0.0,0.0,98,0.00,,,0.00,VWS V14.01,2013-01-01 13:27:00,
2013-01-01 08:32:00,52.7,52.4,30.17,ESE,116,0.0,0.0,99,0.00,,,0.00,VWS V14.01,2013-01-01 13:32:00,
2013-01-01 08:37:00,53.3,53.0,30.18,ESE,116,0.0,0.0,99,0.00,,,0.00,VWS V14.01,2013-01-01 13:37:00,
2013-01-01 08:42:00,54.2,53.9,30.18,ESE,116,0.0,0.0,99,0.00,,,0.00,VWS V14.01,2013-01-01 13:42:00,
2013-01-01 08:47:00,55.2,54.9,30.18,ESE,116,0.0,0.0,99,0.00,,,0.00,VWS V14.01,2013-01-01 13:47:00,
2013-01-01 08:52:00,55.9,55.6,30.18,ESE,116,0.0,0.0,99,0.00,,,0.00,VWS V14.01,2013-01-01 13:52:00,
2013-01-01 08:57:00,56.6,56.3,30.18,ESE,116,0.0,0.0,99,0.00,,,0.00,VWS V14.01,2013-01-01 13:57:00,
2013-01-01 09:03:00,57.2,56.9,30.18,ESE,116,0.0,0.0,99,0.00,,SCT250,0.00,VWS V14.01,2013-01-01 14:03:00,
2013-01-01 09:08:00,57.9,57.6,30.18,ESE,116,0.0,0.0,99,0.00,,SCT250,0.00,VWS V14.01,2013-01-01 14:08:00,
2013-01-01 09:13:00,58.5,58.2,30.18,ESE,116,0.0,0.0,99,0.00,,SCT250,0.00,VWS V14.01,2013-01-01 14:13:00,
2013-01-01 09:18:00,59.1,58.8,30.19,ESE,116,0.0,0.0,99,0.00,,SCT250,0.00,VWS V14.01,2013-01-01 14:18:00,
2013-01-01 09:23:00,59.7,59.4,30.18,ESE,116,0.0,0.0,99,0.00,,SCT250,0.00,VWS V14.01,2013-01-01 14:23:00,
2013-01-01 09:28:00,60.5,59.4,30.18,ESE,116,0.0,0.0,96,0.00,,SCT250,0.00,VWS V14.01,2013-01-01 14:28:00,
2013-01-01 09:33:00,61.2,59.2,30.19,ESE,122,0.0,2.0,93,0.00,,SCT250,0.00,VWS V14.01,2013-01-01 14:33:00,
2013-01-01 09:38:00,61.9,59.2,30.19,ESE,122,0.0,2.0,91,0.00,,SCT250,0.00,VWS V14.01,2013-01-01 14:38:00,
2013-01-01 09:44:00,62.5,59.5,30.19,ESE,122,0.0,0.0,90,0.00,,SCT250,0.00,VWS V14.01,2013-01-01 14:44:00,
2013-01-01 09:49:00,63.1,60.1,30.19,ESE,122,0.0,0.0,90,0.00,,SCT250,0.00,VWS V14.01,2013-01-01 14:49:00,
2013-01-01 09:54:00,63.7,60.1,30.19,ESE,122,0.0,0.0,88,0.00,,SCT250,0.00,VWS V14.01,2013-01-01 14:54:00,
2013-01-01 09:59:00,64.3,60.0,30.19,ESE,122,0.0,0.0,86,0.00,,SCT250,0.00,VWS V14.01,2013-01-01 14:59:00,
2013-01-01 10:04:00,64.8,60.5,30.19,SE,145,0.0,4.0,86,0.00,,BKN039,0.00,VWS V14.01,2013-01-01 15:04:00,
2013-01-01 10:09:00,65.3,60.0,30.19,SE,145,0.0,2.0,83,0.00,,BKN039,0.00,VWS V14.01,2013-01-01 15:09:00,
2013-01-01 10:14:00,65.8,60.8,30.19,SE,145,0.0,2.0,84,0.00,,BKN039,0.00,VWS V14.01,2013-01-01 15:14:00,
2013-01-01 10:19:00,66.4,61.1,30.18,ESE,122,0.0,2.0,83,0.00,,BKN039,0.00,VWS V14.01,2013-01-01 15:19:00,
2013-01-01 10:24:00,67.0,60.6,30.18,SE,143,0.0,4.0,80,0.00,,BKN039,0.00,VWS V14.01,2013-01-01 15:24:00,
2013-01-01 10:30:00,67.6,60.5,30.18,West,275,0.0,4.0,78,0.00,,BKN039,0.00,VWS V14.01,2013-01-01 15:30:00,
2013-01-01 10:35:00,68.0,60.2,30.18,West,260,0.0,4.0,76,0.00,,BKN039,0.00,VWS V14.01,2013-01-01 15:35:00,
2013-01-01 10:40:00,68.4,60.5,30.18,WNW,284,0.0,2.0,76,0.00,,BKN039,0.00,VWS V14.01,2013-01-01 15:40:00,
2013-01-01 10:45:00,68.9,60.3,30.17,SSW,205,2.0,2.0,74,0.00,,BKN039,0.00,VWS V14.01,2013-01-01 15:45:00,
2013-01-01 10:50:00,69.3,60.3,30.17,SSE,153,2.0,2.0,73,0.00,,BKN039,0.00,VWS V14.01,2013-01-01 15:50:00,
2013-01-01 10:55:00,69.7,60.3,30.17,West,267,0.0,4.0,72,0.00,,BKN039,0.00,VWS V14.01,2013-01-01 15:55:00,
2013-01-01 11:00:00,70.2,60.4,30.17,South,169,0.0,4.0,71,0.00,,BKN040,0.00,VWS V14.01,2013-01-01 16:00:00,
2013-01-01 11:05:00,70.6,60.3,30.17,SSE,168,2.0,2.0,70,0.00,,BKN040,0.00,VWS V14.01,2013-01-01 16:05:00,
2013-01-01 11:10:00,71.1,60.8,30.17,South,182,2.0,6.0,70,0.00,,BKN040,0.00,VWS V14.01,2013-01-01 16:10:00,
2013-01-01 11:16:00,71.2,60.9,30.16,SSW,195,2.0,4.0,70,0.00,,BKN040,0.00,VWS V14.01,2013-01-01 16:16:00,
2013-01-01 11:21:00,71.3,60.2,30.16,South,174,4.0,8.0,68,0.00,,BKN040,0.00,VWS V14.01,2013-01-01 16:21:00,
2013-01-01 11:26:00,71.6,60.5,30.16,SW,217,2.0,10.0,68,0.00,,BKN040,0.00,VWS V14.01,2013-01-01 16:26:00,
2013-01-01 11:31:00,71.5,60.4,30.16,South,185,0.0,4.0,68,0.00,,BKN040,0.00,VWS V14.01,2013-01-01 16:31:00,
2013-01-01 11:36:00,72.0,60.9,30.16,SW,228,0.0,4.0,68,0.00,,BKN040,0.00,VWS V14.01,2013-01-01 16:36:00,
2013-01-01 11:41:00,72.4,60.4,30.15,SW,230,6.0,6.0,66,0.00,,BKN040,0.00,VWS V14.01,2013-01-01 16:41:00,
2013-01-01 11:46:00,72.6,60.2,30.15,SW,222,6.0,6.0,65,0.00,,BKN040,0.00,VWS V14.01,2013-01-01 16:46:00,
2013-01-01 11:51:00,72.7,59.8,30.14,WSW,253,2.0,14.0,64,0.00,,BKN040,0.00,VWS V14.01,2013-01-01 16:51:00,
2013-01-01 11:57:00,73.0,60.1,30.14,SSE,150,6.0,14.0,64,0.00,,BKN040,0.00,VWS V14.01,2013-01-01 16:57:00,
2013-01-01 12:02:00,73.4,60.0,30.14,WSW,242,6.0,10.0,63,0.00,,SCT050,0.00,VWS V14.01,2013-01-01 17:02:00,
2013-01-01 12:07:00,73.7,59.9,30.14,SSW,195,4.0,10.0,62,0.00,,SCT050,0.00,VWS V14.01,2013-01-01 17:07:00,
2013-01-01 12:12:00,73.9,59.6,30.14,SSE,163,0.0,14.0,61,0.00,,SCT050,0.00,VWS V14.01,2013-01-01 17:12:00,
2013-01-01 12:17:00,73.8,59.1,30.13,SSW,206,6.0,12.0,60,0.00,,SCT050,0.00,VWS V14.01,2013-01-01 17:17:00,
2013-01-01 12:22:00,73.9,59.6,30.13,South,178,2.0,12.0,61,0.00,,SCT050,0.00,VWS V14.01,2013-01-01 17:22:00,
2013-01-01 12:27:00,74.1,59.8,30.13,SE,144,4.0,8.0,61,0.00,,SCT050,0.00,VWS V14.01,2013-01-01 17:27:00,
2013-01-01 12:32:00,74.4,59.6,30.12,SE,124,2.0,8.0,60,0.00,,SCT050,0.00,VWS V14.01,2013-01-01 17:32:00,
2013-01-01 12:38:00,74.6,59.8,30.12,South,188,4.0,8.0,60,0.00,,SCT050,0.00,VWS V14.01,2013-01-01 17:38:00,
2013-01-01 12:43:00,74.8,60.0,30.12,SSW,211,6.0,10.0,60,0.00,,SCT050,0.00,VWS V14.01,2013-01-01 17:43:00,
2013-01-01 12:48:00,74.8,59.5,30.12,WSW,247,10.0,12.0,59,0.00,,SCT050,0.00,VWS V14.01,2013-01-01 17:48:00,
2013-01-01 12:53:00,75.0,59.7,30.11,South,173,4.0,16.0,59,0.00,,SCT050,0.00,VWS V14.01,2013-01-01 17:53:00,
2013-01-01 12:58:00,75.2,59.9,30.11,SSE,148,8.0,10.0,59,0.00,,SCT050,0.00,VWS V14.01,2013-01-01 17:58:00,
2013-01-01 13:03:00,74.7,59.4,30.11,SSW,210,2.0,12.0,59,0.00,,SCT039,0.00,VWS V14.01,2013-01-01 18:03:00,
2013-01-01 13:08:00,74.7,59.4,30.11,WSW,252,4.0,18.0,59,0.00,,SCT039,0.00,VWS V14.01,2013-01-01 18:08:00,
2013-01-01 13:13:00,74.9,59.6,30.10,SW,226,4.0,12.0,59,0.00,,SCT039,0.00,VWS V14.01,2013-01-01 18:13:00,
2013-01-01 13:19:00,75.2,59.9,30.10,SSW,205,0.0,12.0,59,0.00,,SCT039,0.00,VWS V14.01,2013-01-01 18:19:00,
2013-01-01 13:24:00,75.5,59.2,30.10,South,185,6.0,16.0,57,0.00,,SCT039,0.00,VWS V14.01,2013-01-01 18:24:00,
2013-01-01 13:29:00,75.3,59.5,30.10,SSE,151,8.0,14.0,58,0.00,,SCT039,0.00,VWS V14.01,2013-01-01 18:29:00,
2013-01-01 13:34:00,75.5,59.2,30.09,SW,231,8.0,16.0,57,0.00,,SCT039,0.00,VWS V14.01,2013-01-01 18:34:00,
2013-01-01 13:39:00,75.6,59.8,30.09,SSE,149,4.0,10.0,58,0.00,,SCT039,0.00,VWS V14.01,2013-01-01 18:39:00,
2013-01-01 13:44:00,75.9,59.6,30.09,South,172,4.0,16.0,57,0.00,,SCT039,0.00,VWS V14.01,2013-01-01 18:44:00,
2013-01-01 13:49:00,76.1,59.3,30.09,SSE,149,4.0,10.0,56,0.00,,SCT039,0.00,VWS V14.01,2013-01-01 18:49:00,
2013-01-01 13:55:00,76.4,60.1,30.08,WSW,249,10.0,14.0,57,0.00,,SCT039,0.00,VWS V14.01,2013-01-01 18:55:00,
2013-01-01 14:00:00,76.6,59.8,30.08,South,187,2.0,14.0,56,0.00,,SCT039,0.00,VWS V14.01,2013-01-01 19:00:00,
2013-01-01 14:05:00,76.5,59.7,30.08,SW,227,0.0,10.0,56,0.00,,SCT040,0.00,VWS V14.01,2013-01-01 19:05:00,
2013-01-01 14:10:00,76.3,59.0,30.08,SSE,168,4.0,14.0,55,0.00,,SCT040,0.00,VWS V14.01,2013-01-01 19:10:00,
2013-01-01 14:15:00,75.7,59.4,30.08,WSW,246,2.0,12.0,57,0.00,,SCT040,0.00,VWS V14.01,2013-01-01 19:15:00,
2013-01-01 14:20:00,76.2,59.9,30.07,South,172,2.0,14.0,57,0.00,,SCT040,0.00,VWS V14.01,2013-01-01 19:20:00,
2013-01-01 14:25:00,77.0,59.6,30.07,WSW,245,2.0,2.0,55,0.00,,SCT040,0.00,VWS V14.01,2013-01-01 19:25:00,
2013-01-01 14:30:00,77.5,60.1,30.07,SSE,158,4.0,8.0,55,0.00,,SCT040,0.00,VWS V14.01,2013-01-01 19:30:00,
2013-01-01 14:35:00,77.8,59.8,30.07,West,261,4.0,4.0,54,0.00,,SCT040,0.00,VWS V14.01,2013-01-01 19:35:00,
2013-01-01 14:40:00,77.9,59.9,30.07,SW,219,4.0,6.0,54,0.00,,SCT040,0.00,VWS V14.01,2013-01-01 19:40:00,
2013-01-01 14:45:00,78.0,59.5,30.07,West,271,2.0,12.0,53,0.00,,SCT040,0.00,VWS V14.01,2013-01-01 19:45:00,
2013-01-01 14:50:00,77.5,59.6,30.07,WSW,247,2.0,8.0,54,0.00,,SCT040,0.00,VWS V14.01,2013-01-01 19:50:00,
2013-01-01 14:56:00,77.8,59.8,30.07,SW,214,6.0,8.0,54,0.00,,SCT040,0.00,VWS V14.01,2013-01-01 19:56:00,
2013-01-01 15:01:00,78.1,59.1,30.07,SE,145,4.0,10.0,52,0.00,,FEW042,0.00,VWS V14.01,2013-01-01 20:01:00,
2013-01-01 15:06:00,78.0,59.5,30.07,WSW,245,4.0,4.0,53,0.00,,FEW042,0.00,VWS V14.01,2013-01-01 20:06:00,
2013-01-01 15:11:00,78.2,59.2,30.06,SSE,151,0.0,8.0,52,0.00,,FEW042,0.00,VWS V14.01,2013-01-01 20:11:00,
2013-01-01 15:16:00,78.0,59.0,30.06,SE,140,4.0,6.0,52,0.00,,FEW042,0.00,VWS V14.01,2013-01-01 20:16:00,
2013-01-01 15:21:00,77.7,59.2,30.07,SSE,166,2.0,4.0,53,0.00,,FEW042,0.00,VWS V14.01,2013-01-01 20:21:00,
2013-01-01 15:26:00,77.8,59.3,30.06,SSW,201,4.0,10.0,53,0.00,,FEW042,0.00,VWS V14.01,2013-01-01 20:26:00,
2013-01-01 15:31:00,77.9,59.4,30.07,SSE,159,0.0,2.0,53,0.00,,FEW042,0.00,VWS V14.01,2013-01-01 20:31:00,
2013-01-01 15:37:00,78.0,59.0,30.06,WSW,237,2.0,10.0,52,0.00,,FEW042,0.00,VWS V14.01,2013-01-01 20:37:00,
2013-01-01 15:42:00,77.7,59.2,30.07,SE,133,4.0,6.0,53,0.00,,FEW042,0.00,VWS V14.01,2013-01-01 20:42:00,
2013-01-01 15:47:00,77.6,59.1,30.06,WSW,250,4.0,6.0,53,0.00,,FEW042,0.00,VWS V14.01,2013-01-01 20:47:00,
2013-01-01 15:52:00,77.6,59.1,30.06,SSW,211,4.0,6.0,53,0.00,,FEW042,0.00,VWS V14.01,2013-01-01 20:52:00,
2013-01-01 15:57:00,77.0,59.1,30.06,SSE,157,0.0,10.0,54,0.00,,FEW042,0.00,VWS V14.01,2013-01-01 20:57:00,
2013-01-01 16:02:00,76.4,58.5,30.06,SSE,157,2.0,12.0,54,0.00,,FEW043,0.00,VWS V14.01,2013-01-01 21:02:00,
2013-01-01 16:07:00,76.1,59.3,30.06,SW,219,2.0,6.0,56,0.00,,FEW043,0.00,VWS V14.01,2013-01-01 21:07:00,
2013-01-01 16:12:00,75.9,59.1,30.06,SSE,151,0.0,8.0,56,0.00,,FEW043,0.00,VWS V14.01,2013-01-01 21:12:00,
2013-01-01 16:17:00,75.8,59.0,30.06,SSE,163,0.0,4.0,56,0.00,,FEW043,0.00,VWS V14.01,2013-01-01 21:17:00,
2013-01-01 16:22:00,75.8,59.5,30.06,SSE,163,0.0,2.0,57,0.00,,FEW043,0.00,VWS V14.01,2013-01-01 21:22:00,
2013-01-01 16:28:00,75.6,59.3,30.06,SSE,157,4.0,6.0,57,0.00,,FEW043,0.00,VWS V14.01,2013-01-01 21:28:00,
2013-01-01 16:33:00,75.1,58.8,30.06,East,80,0.0,4.0,57,0.00,,FEW043,0.00,VWS V14.01,2013-01-01 21:33:00,
2013-01-01 16:38:00,74.8,59.0,30.06,South,184,4.0,4.0,58,0.00,,FEW043,0.00,VWS V14.01,2013-01-01 21:38:00,
2013-01-01 16:43:00,74.6,59.3,30.06,South,184,0.0,0.0,59,0.00,,FEW043,0.00,VWS V14.01,2013-01-01 21:43:00,
2013-01-01 16:48:00,74.4,59.2,30.07,WSW,255,0.0,4.0,59,0.00,,FEW043,0.00,VWS V14.01,2013-01-01 21:48:00,
2013-01-01 16:53:00,74.2,59.0,30.06,SW,227,0.0,2.0,59,0.00,,FEW043,0.00,VWS V14.01,2013-01-01 21:53:00,
2013-01-01 16:58:00,74.1,58.9,30.06,SSW,202,0.0,2.0,59,0.00,,FEW043,0.00,VWS V14.01,2013-01-01 21:58:00,
2013-01-01 17:03:00,74.0,59.2,30.06,SSW,202,0.0,2.0,60,0.00,,FEW043,0.00,VWS V14.01,2013-01-01 22:03:00,
2013-01-01 17:09:00,73.8,59.1,30.07,South,187,0.0,2.0,60,0.00,,FEW043,0.00,VWS V14.01,2013-01-01 22:09:00,
2013-01-01 17:14:00,73.7,59.4,30.07,South,187,0.0,0.0,61,0.00,,FEW043,0.00,VWS V14.01,2013-01-01 22:14:00,
2013-01-01 17:19:00,73.6,59.3,30.07,South,185,0.0,4.0,61,0.00,,FEW043,0.00,VWS V14.01,2013-01-01 22:19:00,
2013-01-01 17:24:00,73.5,59.7,30.07,South,185,0.0,2.0,62,0.00,,FEW043,0.00,VWS V14.01,2013-01-01 22:24:00,
2013-01-01 17:29:00,73.3,59.0,30.07,South,185,0.0,2.0,61,0.00,,FEW043,0.00,VWS V14.01,2013-01-01 22:29:00,
2013-01-01 17:34:00,73.1,58.9,30.07,South,185,0.0,0.0,61,0.00,,FEW043,0.00,VWS V14.01,2013-01-01 22:34:00,
2013-01-01 17:39:00,72.9,59.1,30.07,South,185,0.0,0.0,62,0.00,,FEW043,0.00,VWS V14.01,2013-01-01 22:39:00,
2013-01-01 17:44:00,72.5,59.2,30.07,South,185,0.0,0.0,63,0.00,,FEW043,0.00,VWS V14.01,2013-01-01 22:44:00,
2013-01-01 17:50:00,72.1,59.3,30.07,South,185,0.0,0.0,64,0.00,,FEW043,0.00,VWS V14.01,2013-01-01 22:50:00,
2013-01-01 17:55:00,71.7,59.3,30.07,South,185,0.0,0.0,65,0.00,,FEW043,0.00,VWS V14.01,2013-01-01 22:55:00,
2013-01-01 18:00:00,71.1,59.2,30.07,South,185,0.0,0.0,66,0.00,,FEW043,0.00,VWS V14.01,2013-01-01 23:00:00,
2013-01-01 18:05:00,70.6,59.1,30.07,South,185,0.0,0.0,67,0.00,,BKN046,0.00,VWS V14.01,2013-01-01 23:05:00,
2013-01-01 18:10:00,70.1,59.5,30.07,South,185,0.0,0.0,69,0.00,,BKN046,0.00,VWS V14.01,2013-01-01 23:10:00,
2013-01-01 18:15:00,69.4,58.8,30.07,South,185,0.0,0.0,69,0.00,,BKN046,0.00,VWS V14.01,2013-01-01 23:15:00,
2013-01-01 18:20:00,68.9,59.1,30.07,South,185,0.0,0.0,71,0.00,,BKN046,0.00,VWS V14.01,2013-01-01 23:20:00,
2013-01-01 18:25:00,68.3,58.9,30.07,South,185,0.0,0.0,72,0.00,,BKN046,0.00,VWS V14.01,2013-01-01 23:25:00,
2013-01-01 18:30:00,67.6,59.4,30.06,South,185,0.0,0.0,75,0.00,,BKN046,0.00,VWS V14.01,2013-01-01 23:30:00,
2013-01-01 18:36:00,67.0,59.2,30.07,South,185,0.0,0.0,76,0.00,,BKN046,0.00,VWS V14.01,2013-01-01 23:36:00,
2013-01-01 18:41:00,66.5,59.1,30.07,South,185,0.0,0.0,77,0.00,,BKN046,0.00,VWS V14.01,2013-01-01 23:41:00,
2013-01-01 18:46:00,66.0,58.6,30.07,South,185,0.0,0.0,77,0.00,,BKN046,0.00,VWS V14.01,2013-01-01 23:46:00,
2013-01-01 18:51:00,65.7,59.0,30.07,South,185,0.0,0.0,79,0.00,,BKN046,0.00,VWS V14.01,2013-01-01 23:51:00,
2013-01-01 18:56:00,65.3,58.6,30.07,South,185,0.0,0.0,79,0.00,,BKN046,0.00,VWS V14.01,2013-01-01 23:56:00,
2013-01-01 19:01:00,65.1,58.8,30.07,South,185,0.0,0.0,80,0.00,,BKN048,0.00,VWS V14.01,2013-01-02 00:01:00,
2013-01-01 19:06:00,64.9,58.9,30.07,South,185,0.0,0.0,81,0.00,,BKN048,0.00,VWS V14.01,2013-01-02 00:06:00,
2013-01-01 19:11:00,64.9,58.9,30.07,South,185,0.0,0.0,81,0.00,,BKN048,0.00,VWS V14.01,2013-01-02 00:11:00,
2013-01-01 19:16:00,64.9,59.3,30.07,South,185,0.0,0.0,82,0.00,,BKN048,0.00,VWS V14.01,2013-01-02 00:16:00,
2013-01-01 19:22:00,65.0,59.4,30.07,South,185,0.0,0.0,82,0.00,,BKN048,0.00,VWS V14.01,2013-01-02 00:22:00,
2013-01-01 19:27:00,65.0,59.7,30.07,South,185,0.0,0.0,83,0.00,,BKN048,0.00,VWS V14.01,2013-01-02 00:27:00,
2013-01-01 19:32:00,65.0,59.4,30.07,South,185,0.0,0.0,82,0.00,,BKN048,0.00,VWS V14.01,2013-01-02 00:32:00,
2013-01-01 19:37:00,65.0,59.4,30.07,South,185,0.0,0.0,82,0.00,,BKN048,0.00,VWS V14.01,2013-01-02 00:37:00,
2013-01-01 19:42:00,65.0,59.4,30.07,South,185,0.0,0.0,82,0.00,,BKN048,0.00,VWS V14.01,2013-01-02 00:42:00,
2013-01-01 19:47:00,65.0,59.4,30.07,South,185,0.0,0.0,82,0.00,,BKN048,0.00,VWS V14.01,2013-01-02 00:47:00,
2013-01-01 19:52:00,65.0,59.4,30.07,South,185,0.0,0.0,82,0.00,,BKN048,0.00,VWS V14.01,2013-01-02 00:52:00,
2013-01-01 19:58:00,65.0,59.4,30.07,South,185,0.0,0.0,82,0.00,,BKN048,0.00,VWS V14.01,2013-01-02 00:58:00,
2013-01-01 20:03:00,64.9,59.3,30.07,South,185,0.0,0.0,82,0.00,,BKN050,0.00,VWS V14.01,2013-01-02 01:03:00,
2013-01-01 20:08:00,64.8,59.2,30.07,South,185,0.0,0.0,82,0.00,,BKN050,0.00,VWS V14.01,2013-01-02 01:08:00,
2013-01-01 20:13:00,64.6,59.3,30.07,South,185,0.0,0.0,83,0.00,,BKN050,0.00,VWS V14.01,2013-01-02 01:13:00,
2013-01-01 20:18:00,64.4,59.1,30.07,South,185,0.0,0.0,83,0.00,,BKN050,0.00,VWS V14.01,2013-01-02 01:18:00,
2013-01-01 20:23:00,64.2,58.9,30.07,South,185,0.0,0.0,83,0.00,,BKN050,0.00,VWS V14.01,2013-01-02 01:23:00,
2013-01-01 20:28:00,64.0,58.7,30.07,South,185,0.0,0.0,83,0.00,,BKN050,0.00,VWS V14.01,2013-01-02 01:28:00,
2013-01-01 20:33:00,63.7,58.8,30.07,South,185,0.0,0.0,84,0.00,,BKN050,0.00,VWS V14.01,2013-01-02 01:33:00,
2013-01-01 20:39:00,63.5,58.6,30.07,South,185,0.0,0.0,84,0.00,,BKN050,0.00,VWS V14.01,2013-01-02 01:39:00,
2013-01-01 20:44:00,63.2,58.6,30.07,South,185,0.0,0.0,85,0.00,,BKN050,0.00,VWS V14.01,2013-01-02 01:44:00,
2013-01-01 20:49:00,62.9,58.3,30.07,South,185,0.0,0.0,85,0.00,,BKN050,0.00,VWS V14.01,2013-01-02 01:49:00,
2013-01-01 20:54:00,62.6,58.0,30.07,South,185,0.0,0.0,85,0.00,,BKN050,0.00,VWS V14.01,2013-01-02 01:54:00,
2013-01-01 20:59:00,62.2,58.0,30.07,South,185,0.0,0.0,86,0.00,,BKN050,0.00,VWS V14.01,2013-01-02 01:59:00,
2013-01-01 21:04:00,61.9,58.0,30.07,South,185,0.0,0.0,87,0.00,,FEW055,0.00,VWS V14.01,2013-01-02 02:04:00,
2013-01-01 21:09:00,61.7,58.1,30.07,South,185,0.0,0.0,88,0.00,,FEW055,0.00,VWS V14.01,2013-01-02 02:09:00,
2013-01-01 21:14:00,61.5,57.9,30.07,WSW,248,4.0,4.0,88,0.00,,FEW055,0.00,VWS V14.01,2013-01-02 02:14:00,
2013-01-01 21:19:00,61.4,57.8,30.08,West,269,0.0,6.0,88,0.00,,FEW055,0.00,VWS V14.01,2013-01-02 02:19:00,
2013-01-01 21:25:00,61.5,57.9,30.07,West,269,0.0,0.0,88,0.00,,FEW055,0.00,VWS V14.01,2013-01-02 02:25:00,
2013-01-01 21:30:00,61.4,57.8,30.07,West,269,0.0,0.0,88,0.00,,FEW055,0.00,VWS V14.01,2013-01-02 02:30:00,
2013-01-01 21:35:00,61.4,57.8,30.07,West,269,0.0,0.0,88,0.00,,FEW055,0.00,VWS V14.01,2013-01-02 02:35:00,
2013-01-01 21:40:00,61.3,57.7,30.08,West,269,0.0,0.0,88,0.00,,FEW055,0.00,VWS V14.01,2013-01-02 02:40:00,
2013-01-01 21:45:00,61.1,57.5,30.07,West,269,0.0,0.0,88,0.00,,FEW055,0.00,VWS V14.01,2013-01-02 02:45:00,
2013-01-01 21:50:00,60.8,57.5,30.08,West,269,0.0,0.0,89,0.00,,FEW055,0.00,VWS V14.01,2013-01-02 02:50:00,
2013-01-01 21:55:00,60.7,57.4,30.08,West,269,0.0,0.0,89,0.00,,FEW055,0.00,VWS V14.01,2013-01-02 02:55:00,
2013-01-01 22:00:00,60.5,57.6,30.08,West,269,0.0,0.0,90,0.00,,FEW050,0.00,VWS V14.01,2013-01-02 03:00:00,
2013-01-01 22:06:00,60.3,57.4,30.08,West,269,0.0,0.0,90,0.00,,FEW050,0.00,VWS V14.01,2013-01-02 03:06:00,
2013-01-01 22:11:00,60.0,57.1,30.08,West,269,0.0,0.0,90,0.00,,FEW050,0.00,VWS V14.01,2013-01-02 03:11:00,
2013-01-01 22:16:00,59.8,56.9,30.08,West,269,0.0,0.0,90,0.00,,FEW050,0.00,VWS V14.01,2013-01-02 03:16:00,
2013-01-01 22:21:00,59.6,57.0,30.08,West,269,0.0,0.0,91,0.00,,FEW050,0.00,VWS V14.01,2013-01-02 03:21:00,
2013-01-01 22:26:00,59.4,56.8,30.08,West,269,0.0,0.0,91,0.00,,FEW050,0.00,VWS V14.01,2013-01-02 03:26:00,
2013-01-01 22:31:00,59.3,56.7,30.08,West,269,0.0,0.0,91,0.00,,FEW050,0.00,VWS V14.01,2013-01-02 03:31:00,
2013-01-01 22:36:00,59.2,56.9,30.07,West,269,0.0,0.0,92,0.00,,FEW050,0.00,VWS V14.01,2013-01-02 03:36:00,
2013-01-01 22:41:00,59.1,56.8,30.07,West,269,0.0,0.0,92,0.00,,FEW050,0.00,VWS V14.01,2013-01-02 03:41:00,
2013-01-01 22:46:00,58.9,56.6,30.07,West,269,0.0,0.0,92,0.00,,FEW050,0.00,VWS V14.01,2013-01-02 03:46:00,
2013-01-01 22:52:00,58.9,56.6,30.07,West,269,0.0,0.0,92,0.00,,FEW050,0.00,VWS V14.01,2013-01-02 03:52:00,
2013-01-01 22:57:00,58.8,56.5,30.07,West,269,0.0,0.0,92,0.00,,FEW050,0.00,VWS V14.01,2013-01-02 03:57:00,
2013-01-01 23:02:00,58.6,56.3,30.07,West,269,0.0,0.0,92,0.00,,FEW050,0.00,VWS V14.01,2013-01-02 04:02:00,
2013-01-01 23:07:00,58.5,56.5,30.07,West,269,0.0,0.0,93,0.00,,FEW050,0.00,VWS V14.01,2013-01-02 04:07:00,
2013-01-01 23:12:00,58.4,56.4,30.07,West,269,0.0,0.0,93,0.00,,FEW050,0.00,VWS V14.01,2013-01-02 04:12:00,
2013-01-01 23:17:00,58.2,56.2,30.07,West,269,0.0,0.0,93,0.00,,FEW050,0.00,VWS V14.01,2013-01-02 04:17:00,
2013-01-01 23:22:00,58.0,56.0,30.07,West,269,0.0,0.0,93,0.00,,FEW050,0.00,VWS V14.01,2013-01-02 04:22:00,
2013-01-01 23:27:00,57.9,56.2,30.06,West,269,0.0,0.0,94,0.00,,FEW050,0.00,VWS V14.01,2013-01-02 04:27:00,
2013-01-01 23:32:00,57.8,55.8,30.06,West,269,0.0,0.0,93,0.00,,FEW050,0.00,VWS V14.01,2013-01-02 04:32:00,
2013-01-01 23:37:00,57.7,55.7,30.06,West,269,0.0,0.0,93,0.00,,FEW050,0.00,VWS V14.01,2013-01-02 04:37:00,
2013-01-01 23:43:00,57.5,55.8,30.06,West,269,0.0,0.0,94,0.00,,FEW050,0.00,VWS V14.01,2013-01-02 04:43:00,
2013-01-01 23:48:00,57.3,55.6,30.05,West,269,0.0,0.0,94,0.00,,FEW050,0.00,VWS V14.01,2013-01-02 04:48:00,
2013-01-01 23:53:00,57.2,55.5,30.05,West,269,0.0,0.0,94,0.00,,FEW050,0.00,VWS V14.01,2013-01-02 04:53:00,
2013-01-01 23:58:00,57.0,55.0,30.05,West,269,0.0,0.0,93,0.00,,FEW050,0.00,VWS V14.01,2013-01-02 04:58:00,